OTBD/DOH METAR and TAF weather

Enter ICAO airport designator
Station Type Date Time Source
OTBD METAR 2019/08/22 22:00 UTC NOAA

OTBD 222200Z 13002KT 7000 NSC 33/27 Q1001 NOSIG


Station Type Date Time Source
OTBD Decoded METAR 2019/08/22 22:00 UTC NOAA

Station name not available
Aug 22, 2019 - 06:00 PM EDT / 2019.08.22 2200 UTC
Wind: from the SE (130 degrees) at 2 MPH (2 KT):0
Visibility: 4 mile(s):0
Temperature: 91 F (33 C)
Heat index: 109.0 F (42.8 C):1
Dew Point: 80 F (27 C)
Relative Humidity: 70%
Pressure (altimeter): 29.56 in. Hg (1001 hPa)
ob: OTBD 222200Z 13002KT 7000 NSC 33/27 Q1001 NOSIG
cycle: 22

Station Type Date Time Source
OTBD TAF 2019/08/24 06:03 UTC NOAA

TAF TAF OTBD 240459Z 2406/2512 08009KT 7000 NSC
TEMPO 2500/2506 VRB02KT

Example: see airport list